VOI262 MMMX-MMTG
Flight info
| Callsign | VOI262 |
|---|---|
| Flight time | 1h 8m |
| Altitude | 35000 |
| Route | ILETO3A ILETO UT109 VER UA552 TGZ |
| Aircraft | A320/M-SDE3FGHIRWY/LB1 |
Departure
| Time | 2026-05-03 22:48 |
|---|---|
| Airport | Mexico City Benito Juárez International Airport (MMMX) |
Arrival
| Time | 2026-05-03 23:57 |
|---|---|
| Airport | Angel Albino Corzo International Airport (MMTG) |
| Time | Latitude | Longitude | Altitude | Speed | Heading |
|---|---|---|---|---|---|
| 2026-05-03 21:54 | 19.43244 | -99.08747 | 7330 ft | 0 kts | 103° |
| 2026-05-03 22:34 | 19.43245 | -99.08754 | 7330 ft | 2 kts | 101° |
| 2026-05-03 22:34 | 19.43249 | -99.08774 | 7330 ft | 3 kts | 102° |
| 2026-05-03 22:34 | 19.43253 | -99.08791 | 7330 ft | 3 kts | 154° |
| 2026-05-03 22:35 | 19.43260 | -99.08792 | 7330 ft | 2 kts | 187° |
| 2026-05-03 22:35 | 19.43277 | -99.08788 | 7330 ft | 3 kts | 214° |
| 2026-05-03 22:35 | 19.43292 | -99.08775 | 7330 ft | 2 kts | 215° |
| 2026-05-03 22:35 | 19.43296 | -99.08773 | 7330 ft | 0 kts | 213° |
| 2026-05-03 22:39 | 19.43293 | -99.08774 | 7330 ft | 1 kts | 213° |
| 2026-05-03 22:39 | 19.43276 | -99.08786 | 7330 ft | 4 kts | 213° |
| 2026-05-03 22:39 | 19.43242 | -99.08802 | 7330 ft | 7 kts | 186° |
| 2026-05-03 22:40 | 19.43189 | -99.08789 | 7330 ft | 9 kts | 153° |
| 2026-05-03 22:40 | 19.43143 | -99.08736 | 7330 ft | 11 kts | 121° |
| 2026-05-03 22:40 | 19.43117 | -99.08656 | 7330 ft | 12 kts | 75° |
| 2026-05-03 22:40 | 19.43163 | -99.08571 | 7330 ft | 15 kts | 57° |
| 2026-05-03 22:41 | 19.43222 | -99.08471 | 7330 ft | 17 kts | 58° |
| 2026-05-03 22:41 | 19.43290 | -99.08355 | 7330 ft | 20 kts | 58° |
| 2026-05-03 22:41 | 19.43361 | -99.08218 | 7330 ft | 22 kts | 63° |
| 2026-05-03 22:41 | 19.43433 | -99.08065 | 7330 ft | 24 kts | 62° |
| 2026-05-03 22:42 | 19.43512 | -99.07950 | 7330 ft | 19 kts | 63° |
| 2026-05-03 22:42 | 19.43576 | -99.07827 | 7330 ft | 20 kts | 58° |
| 2026-05-03 22:42 | 19.43654 | -99.07693 | 7330 ft | 22 kts | 58° |
| 2026-05-03 22:42 | 19.43728 | -99.07557 | 7330 ft | 18 kts | 60° |
| 2026-05-03 22:43 | 19.43796 | -99.07433 | 7330 ft | 21 kts | 59° |
| 2026-05-03 22:43 | 19.43875 | -99.07294 | 7330 ft | 23 kts | 59° |
| 2026-05-03 22:43 | 19.43961 | -99.07138 | 7330 ft | 26 kts | 59° |
| 2026-05-03 22:43 | 19.44052 | -99.06976 | 7330 ft | 24 kts | 59° |
| 2026-05-03 22:44 | 19.44126 | -99.06845 | 7330 ft | 22 kts | 59° |
| 2026-05-03 22:44 | 19.44209 | -99.06699 | 7330 ft | 24 kts | 60° |
| 2026-05-03 22:44 | 19.44297 | -99.06542 | 7330 ft | 25 kts | 60° |
| 2026-05-03 22:44 | 19.44382 | -99.06387 | 7330 ft | 22 kts | 60° |
| 2026-05-03 22:45 | 19.44413 | -99.06294 | 7330 ft | 21 kts | 95° |
| 2026-05-03 22:45 | 19.44381 | -99.06202 | 7330 ft | 14 kts | 112° |
| 2026-05-03 22:45 | 19.44338 | -99.06098 | 7330 ft | 17 kts | 113° |
| 2026-05-03 22:45 | 19.44314 | -99.06002 | 7330 ft | 12 kts | 69° |
| 2026-05-03 22:46 | 19.44359 | -99.05915 | 7330 ft | 15 kts | 58° |
| 2026-05-03 22:46 | 19.44417 | -99.05829 | 7330 ft | 14 kts | 31° |
| 2026-05-03 22:46 | 19.44505 | -99.05833 | 7330 ft | 13 kts | 330° |
| 2026-05-03 22:46 | 19.44522 | -99.05902 | 7330 ft | 5 kts | 242° |
| 2026-05-03 22:47 | 19.44500 | -99.05942 | 7330 ft | 8 kts | 238° |
| 2026-05-03 22:47 | 19.44464 | -99.06003 | 7330 ft | 15 kts | 238° |
| 2026-05-03 22:47 | 19.44339 | -99.06225 | 7330 ft | 67 kts | 239° |
| 2026-05-03 22:47 | 19.43981 | -99.06863 | 7330 ft | 132 kts | 239° |
| 2026-05-03 22:48 | 19.43423 | -99.07869 | 7370 ft | 178 kts | 240° |
| 2026-05-03 22:48 | 19.42788 | -99.09027 | 7907 ft | 182 kts | 240° |
| 2026-05-03 22:48 | 19.42152 | -99.10190 | 8620 ft | 182 kts | 240° |
| 2026-05-03 22:48 | 19.41492 | -99.11401 | 9139 ft | 197 kts | 240° |
| 2026-05-03 22:49 | 19.40757 | -99.12696 | 9610 ft | 213 kts | 237° |
| 2026-05-03 22:49 | 19.39734 | -99.13894 | 10087 ft | 228 kts | 214° |
| 2026-05-03 22:49 | 19.38207 | -99.14458 | 10547 ft | 243 kts | 182° |
| 2026-05-03 22:49 | 19.36549 | -99.14032 | 11078 ft | 252 kts | 149° |
| 2026-05-03 22:50 | 19.35188 | -99.12814 | 11693 ft | 260 kts | 133° |
| 2026-05-03 22:50 | 19.33933 | -99.11399 | 12383 ft | 267 kts | 133° |
| 2026-05-03 22:50 | 19.32633 | -99.10007 | 13093 ft | 272 kts | 137° |
| 2026-05-03 22:50 | 19.31236 | -99.08625 | 13819 ft | 276 kts | 140° |
| 2026-05-03 22:51 | 19.29828 | -99.07225 | 14555 ft | 280 kts | 139° |
| 2026-05-03 22:51 | 19.28427 | -99.05771 | 15267 ft | 283 kts | 138° |
| 2026-05-03 22:51 | 19.27206 | -99.04123 | 15786 ft | 290 kts | 117° |
| 2026-05-03 22:51 | 19.26750 | -99.02030 | 16197 ft | 298 kts | 87° |
| 2026-05-03 22:52 | 19.27248 | -98.99877 | 16414 ft | 309 kts | 63° |
| 2026-05-03 22:52 | 19.28237 | -98.97804 | 16660 ft | 322 kts | 61° |
| 2026-05-03 22:52 | 19.29247 | -98.95626 | 16876 ft | 336 kts | 63° |
| 2026-05-03 22:52 | 19.30423 | -98.93480 | 17097 ft | 345 kts | 48° |
| 2026-05-03 22:53 | 19.32127 | -98.91652 | 17571 ft | 345 kts | 39° |
| 2026-05-03 22:53 | 19.33923 | -98.90014 | 18058 ft | 347 kts | 37° |
| 2026-05-03 22:53 | 19.35799 | -98.88388 | 18521 ft | 349 kts | 36° |
| 2026-05-03 22:53 | 19.37687 | -98.86744 | 18972 ft | 352 kts | 37° |
| 2026-05-03 22:54 | 19.39568 | -98.85065 | 19435 ft | 355 kts | 38° |
| 2026-05-03 22:54 | 19.41451 | -98.83349 | 19891 ft | 358 kts | 38° |
| 2026-05-03 22:54 | 19.43319 | -98.81586 | 20335 ft | 362 kts | 43° |
| 2026-05-03 22:54 | 19.44778 | -98.79403 | 20740 ft | 368 kts | 63° |
| 2026-05-03 22:55 | 19.45770 | -98.76881 | 21181 ft | 371 kts | 69° |
| 2026-05-03 22:55 | 19.46616 | -98.74288 | 21595 ft | 374 kts | 70° |
| 2026-05-03 22:55 | 19.47430 | -98.71661 | 22000 ft | 377 kts | 72° |
| 2026-05-03 22:55 | 19.47838 | -98.68903 | 22344 ft | 382 kts | 88° |
| 2026-05-03 22:56 | 19.47809 | -98.66055 | 22554 ft | 390 kts | 92° |
| 2026-05-03 22:56 | 19.47638 | -98.63145 | 22696 ft | 400 kts | 94° |
| 2026-05-03 22:56 | 19.47432 | -98.60163 | 22832 ft | 410 kts | 94° |
| 2026-05-03 22:56 | 19.47255 | -98.57108 | 22966 ft | 420 kts | 93° |
| 2026-05-03 22:57 | 19.47124 | -98.54017 | 23093 ft | 429 kts | 92° |
| 2026-05-03 22:57 | 19.47019 | -98.50831 | 23216 ft | 437 kts | 92° |
| 2026-05-03 22:57 | 19.46908 | -98.47539 | 23337 ft | 445 kts | 92° |
| 2026-05-03 22:57 | 19.46779 | -98.44277 | 23450 ft | 453 kts | 92° |
| 2026-05-03 22:58 | 19.46559 | -98.40927 | 23554 ft | 460 kts | 98° |
| 2026-05-03 22:58 | 19.45861 | -98.37603 | 23649 ft | 466 kts | 109° |
| 2026-05-03 22:58 | 19.44551 | -98.34420 | 23752 ft | 471 kts | 120° |
| 2026-05-03 22:58 | 19.42893 | -98.31404 | 23862 ft | 476 kts | 123° |
| 2026-05-03 22:59 | 19.41138 | -98.28407 | 23958 ft | 482 kts | 123° |
| 2026-05-03 22:59 | 19.39352 | -98.25367 | 24050 ft | 488 kts | 123° |
| 2026-05-03 22:59 | 19.37589 | -98.22274 | 24139 ft | 494 kts | 122° |
| 2026-05-03 22:59 | 19.35851 | -98.19116 | 24227 ft | 499 kts | 121° |
| 2026-05-03 23:00 | 19.34107 | -98.15896 | 24310 ft | 504 kts | 121° |
| 2026-05-03 23:00 | 19.32344 | -98.12673 | 24386 ft | 509 kts | 122° |
| 2026-05-03 23:00 | 19.30557 | -98.09466 | 24432 ft | 513 kts | 122° |
| 2026-05-03 23:00 | 19.28725 | -98.06217 | 24577 ft | 515 kts | 122° |
| 2026-05-03 23:01 | 19.27121 | -98.02811 | 24713 ft | 519 kts | 112° |
| 2026-05-03 23:01 | 19.26161 | -97.99138 | 24903 ft | 520 kts | 99° |
| 2026-05-03 23:01 | 19.25816 | -97.95324 | 25113 ft | 520 kts | 94° |
| 2026-05-03 23:01 | 19.25644 | -97.91500 | 25318 ft | 520 kts | 92° |
| 2026-05-03 23:02 | 19.25506 | -97.87678 | 25534 ft | 519 kts | 92° |
| 2026-05-03 23:02 | 19.25330 | -97.83858 | 25741 ft | 519 kts | 93° |
| 2026-05-03 23:02 | 19.25090 | -97.80051 | 25947 ft | 519 kts | 94° |
| 2026-05-03 23:02 | 19.24809 | -97.76243 | 26162 ft | 518 kts | 95° |
| 2026-05-03 23:03 | 19.24535 | -97.72487 | 26366 ft | 518 kts | 94° |
| 2026-05-03 23:03 | 19.24287 | -97.68687 | 26585 ft | 518 kts | 94° |
| 2026-05-03 23:03 | 19.24064 | -97.64880 | 26796 ft | 517 kts | 94° |
| 2026-05-03 23:03 | 19.23849 | -97.61081 | 27017 ft | 517 kts | 94° |
| 2026-05-03 23:04 | 19.23621 | -97.57281 | 27245 ft | 516 kts | 94° |
| 2026-05-03 23:04 | 19.23377 | -97.53492 | 27474 ft | 516 kts | 94° |
| 2026-05-03 23:04 | 19.23124 | -97.49710 | 27706 ft | 516 kts | 94° |
| 2026-05-03 23:04 | 19.22873 | -97.45922 | 27929 ft | 515 kts | 94° |
| 2026-05-03 23:05 | 19.22631 | -97.42139 | 28156 ft | 515 kts | 94° |
| 2026-05-03 23:05 | 19.22394 | -97.38363 | 28375 ft | 514 kts | 94° |
| 2026-05-03 23:05 | 19.22156 | -97.34592 | 28605 ft | 514 kts | 94° |
| 2026-05-03 23:05 | 19.21912 | -97.30816 | 28841 ft | 513 kts | 94° |
| 2026-05-03 23:06 | 19.21665 | -97.27050 | 29082 ft | 513 kts | 94° |
| 2026-05-03 23:06 | 19.21421 | -97.23332 | 29310 ft | 512 kts | 94° |
| 2026-05-03 23:06 | 19.21177 | -97.19571 | 29536 ft | 512 kts | 94° |
| 2026-05-03 23:06 | 19.20932 | -97.15812 | 29765 ft | 511 kts | 94° |
| 2026-05-03 23:07 | 19.20687 | -97.12057 | 29995 ft | 511 kts | 94° |
| 2026-05-03 23:07 | 19.20438 | -97.08301 | 30229 ft | 511 kts | 94° |
| 2026-05-03 23:07 | 19.20189 | -97.04561 | 30453 ft | 510 kts | 94° |
| 2026-05-03 23:07 | 19.19940 | -97.00812 | 30670 ft | 510 kts | 94° |
| 2026-05-03 23:08 | 19.19693 | -96.97077 | 30877 ft | 509 kts | 94° |
| 2026-05-03 23:08 | 19.19444 | -96.93331 | 31085 ft | 509 kts | 94° |
| 2026-05-03 23:08 | 19.19192 | -96.89595 | 31291 ft | 508 kts | 94° |
| 2026-05-03 23:08 | 19.18940 | -96.85867 | 31510 ft | 508 kts | 94° |
| 2026-05-03 23:09 | 19.18690 | -96.82147 | 31734 ft | 508 kts | 94° |
| 2026-05-03 23:09 | 19.18438 | -96.78412 | 31957 ft | 507 kts | 94° |
| 2026-05-03 23:09 | 19.18192 | -96.74730 | 32176 ft | 507 kts | 94° |
| 2026-05-03 23:09 | 19.17940 | -96.71019 | 32387 ft | 506 kts | 94° |
| 2026-05-03 23:10 | 19.17686 | -96.67303 | 32607 ft | 506 kts | 94° |
| 2026-05-03 23:10 | 19.17431 | -96.63597 | 32826 ft | 505 kts | 94° |
| 2026-05-03 23:10 | 19.17176 | -96.59884 | 33038 ft | 505 kts | 94° |
| 2026-05-03 23:10 | 19.16918 | -96.56180 | 33246 ft | 505 kts | 94° |
| 2026-05-03 23:11 | 19.16664 | -96.52480 | 33445 ft | 504 kts | 94° |
| 2026-05-03 23:11 | 19.16411 | -96.48785 | 33641 ft | 504 kts | 94° |
| 2026-05-03 23:11 | 19.16158 | -96.45097 | 33833 ft | 503 kts | 94° |
| 2026-05-03 23:11 | 19.15902 | -96.41395 | 34018 ft | 503 kts | 94° |
| 2026-05-03 23:12 | 19.15645 | -96.37708 | 34197 ft | 503 kts | 94° |
| 2026-05-03 23:12 | 19.15385 | -96.34028 | 34361 ft | 502 kts | 94° |
| 2026-05-03 23:12 | 19.15124 | -96.30348 | 34569 ft | 501 kts | 94° |
| 2026-05-03 23:12 | 19.14865 | -96.26667 | 34822 ft | 499 kts | 94° |
| 2026-05-03 23:13 | 19.14597 | -96.23016 | 35005 ft | 498 kts | 96° |
| 2026-05-03 23:13 | 19.13950 | -96.19423 | 35000 ft | 499 kts | 108° |
| 2026-05-03 23:13 | 19.12625 | -96.16088 | 34995 ft | 497 kts | 121° |
| 2026-05-03 23:14 | 19.08752 | -96.10048 | 35014 ft | 495 kts | 128° |
| 2026-05-03 23:14 | 19.04765 | -96.04124 | 35009 ft | 496 kts | 126° |
| 2026-05-03 23:15 | 19.00939 | -95.98047 | 35008 ft | 496 kts | 125° |
| 2026-05-03 23:15 | 18.97116 | -95.91997 | 35009 ft | 496 kts | 126° |
| 2026-05-03 23:16 | 18.93203 | -95.85982 | 35008 ft | 496 kts | 126° |
| 2026-05-03 23:16 | 18.89330 | -95.79966 | 35007 ft | 496 kts | 126° |
| 2026-05-03 23:17 | 18.85462 | -95.73923 | 35009 ft | 496 kts | 126° |
| 2026-05-03 23:17 | 18.81575 | -95.67902 | 34976 ft | 496 kts | 126° |
| 2026-05-03 23:18 | 18.77690 | -95.61882 | 34956 ft | 497 kts | 126° |
| 2026-05-03 23:18 | 18.73788 | -95.55835 | 34952 ft | 498 kts | 126° |
| 2026-05-03 23:19 | 18.69877 | -95.49777 | 34952 ft | 500 kts | 126° |
| 2026-05-03 23:19 | 18.65983 | -95.43759 | 34953 ft | 500 kts | 126° |
| 2026-05-03 23:20 | 18.62033 | -95.37661 | 34956 ft | 501 kts | 126° |
| 2026-05-03 23:20 | 18.58099 | -95.31588 | 34952 ft | 502 kts | 126° |
| 2026-05-03 23:21 | 18.54183 | -95.25549 | 34958 ft | 502 kts | 126° |
| 2026-05-03 23:21 | 18.50236 | -95.19470 | 34971 ft | 502 kts | 126° |
| 2026-05-03 23:22 | 18.44315 | -95.10356 | 34979 ft | 502 kts | 126° |
| 2026-05-03 23:22 | 18.40365 | -95.04282 | 34978 ft | 502 kts | 126° |
| 2026-05-03 23:23 | 18.36415 | -94.98222 | 34980 ft | 502 kts | 126° |
| 2026-05-03 23:23 | 18.32457 | -94.92149 | 34983 ft | 502 kts | 126° |
| 2026-05-03 23:24 | 18.28504 | -94.86087 | 34976 ft | 502 kts | 126° |
| 2026-05-03 23:24 | 18.24539 | -94.80022 | 34971 ft | 502 kts | 126° |
| 2026-05-03 23:25 | 18.20584 | -94.73974 | 34967 ft | 502 kts | 126° |
| 2026-05-03 23:25 | 18.16654 | -94.67957 | 34964 ft | 502 kts | 126° |
| 2026-05-03 23:26 | 18.12686 | -94.61900 | 34962 ft | 502 kts | 126° |
| 2026-05-03 23:26 | 18.08345 | -94.56178 | 34963 ft | 499 kts | 136° |
| 2026-05-03 23:27 | 18.03403 | -94.51105 | 34572 ft | 494 kts | 139° |
| 2026-05-03 23:27 | 18.00914 | -94.48634 | 33858 ft | 494 kts | 139° |
| 2026-05-03 23:27 | 17.98412 | -94.46123 | 32831 ft | 500 kts | 138° |
| 2026-05-03 23:28 | 17.95908 | -94.43559 | 31876 ft | 504 kts | 137° |
| 2026-05-03 23:28 | 17.93408 | -94.40966 | 30955 ft | 505 kts | 137° |
| 2026-05-03 23:28 | 17.90903 | -94.38373 | 30000 ft | 507 kts | 137° |
| 2026-05-03 23:28 | 17.88375 | -94.35780 | 29111 ft | 507 kts | 138° |
| 2026-05-03 23:29 | 17.85833 | -94.33196 | 28504 ft | 507 kts | 138° |
| 2026-05-03 23:29 | 17.84148 | -94.31488 | 28264 ft | 508 kts | 138° |
| 2026-05-03 23:29 | 17.80774 | -94.28057 | 28059 ft | 511 kts | 138° |
| 2026-05-03 23:29 | 17.79060 | -94.26305 | 28033 ft | 512 kts | 137° |
| 2026-05-03 23:30 | 17.73943 | -94.21068 | 28015 ft | 513 kts | 138° |
| 2026-05-03 23:30 | 17.68834 | -94.15865 | 28010 ft | 505 kts | 138° |
| 2026-05-03 23:31 | 17.66357 | -94.13338 | 27804 ft | 488 kts | 138° |
| 2026-05-03 23:31 | 17.63956 | -94.10888 | 27210 ft | 476 kts | 138° |
| 2026-05-03 23:31 | 17.61599 | -94.08488 | 26283 ft | 472 kts | 138° |
| 2026-05-03 23:31 | 17.59235 | -94.06092 | 25028 ft | 474 kts | 138° |
| 2026-05-03 23:32 | 17.56848 | -94.03673 | 23643 ft | 479 kts | 138° |
| 2026-05-03 23:32 | 17.54490 | -94.01278 | 22554 ft | 477 kts | 138° |
| 2026-05-03 23:32 | 17.52138 | -93.98882 | 21821 ft | 466 kts | 138° |
| 2026-05-03 23:32 | 17.49825 | -93.96525 | 21269 ft | 451 kts | 138° |
| 2026-05-03 23:33 | 17.47618 | -93.94281 | 20473 ft | 444 kts | 138° |
| 2026-05-03 23:33 | 17.45412 | -93.92044 | 19577 ft | 440 kts | 138° |
| 2026-05-03 23:33 | 17.43224 | -93.89824 | 18871 ft | 432 kts | 138° |
| 2026-05-03 23:33 | 17.41100 | -93.87668 | 18460 ft | 417 kts | 138° |
| 2026-05-03 23:34 | 17.39055 | -93.85596 | 18125 ft | 401 kts | 138° |
| 2026-05-03 23:34 | 17.37091 | -93.83604 | 17838 ft | 385 kts | 138° |
| 2026-05-03 23:34 | 17.35206 | -93.81692 | 17587 ft | 370 kts | 138° |
| 2026-05-03 23:34 | 17.33383 | -93.79847 | 17166 ft | 361 kts | 139° |
| 2026-05-03 23:35 | 17.31581 | -93.78030 | 16595 ft | 358 kts | 139° |
| 2026-05-03 23:35 | 17.29793 | -93.76222 | 16027 ft | 355 kts | 138° |
| 2026-05-03 23:35 | 17.28024 | -93.74430 | 15464 ft | 352 kts | 138° |
| 2026-05-03 23:35 | 17.26278 | -93.72660 | 15064 ft | 344 kts | 138° |
| 2026-05-03 23:36 | 17.24591 | -93.70949 | 14859 ft | 331 kts | 139° |
| 2026-05-03 23:36 | 17.22960 | -93.69298 | 14503 ft | 324 kts | 139° |
| 2026-05-03 23:36 | 17.21363 | -93.67689 | 14036 ft | 321 kts | 139° |
| 2026-05-03 23:36 | 17.19759 | -93.66070 | 13557 ft | 319 kts | 138° |
| 2026-05-03 23:37 | 17.18164 | -93.64461 | 13073 ft | 317 kts | 138° |
| 2026-05-03 23:37 | 17.16583 | -93.62866 | 12593 ft | 315 kts | 138° |
| 2026-05-03 23:37 | 17.15010 | -93.61278 | 12118 ft | 313 kts | 137° |
| 2026-05-03 23:37 | 17.13455 | -93.59705 | 11649 ft | 311 kts | 137° |
| 2026-05-03 23:38 | 17.11903 | -93.58135 | 11184 ft | 308 kts | 137° |
| 2026-05-03 23:38 | 17.10366 | -93.56582 | 10774 ft | 304 kts | 137° |
| 2026-05-03 23:38 | 17.08876 | -93.55076 | 10591 ft | 292 kts | 137° |
| 2026-05-03 23:38 | 17.07454 | -93.53642 | 10322 ft | 285 kts | 137° |
| 2026-05-03 23:39 | 17.06038 | -93.52216 | 10029 ft | 281 kts | 136° |
| 2026-05-03 23:39 | 17.04631 | -93.50800 | 9998 ft | 281 kts | 136° |
| 2026-05-03 23:39 | 17.03216 | -93.49375 | 10003 ft | 282 kts | 136° |
| 2026-05-03 23:39 | 17.01804 | -93.47950 | 9999 ft | 281 kts | 136° |
| 2026-05-03 23:40 | 17.00398 | -93.46530 | 9999 ft | 281 kts | 136° |
| 2026-05-03 23:40 | 16.98989 | -93.45113 | 9999 ft | 282 kts | 136° |
| 2026-05-03 23:40 | 16.97571 | -93.43692 | 10018 ft | 280 kts | 136° |
| 2026-05-03 23:40 | 16.96201 | -93.42313 | 9978 ft | 268 kts | 136° |
| 2026-05-03 23:41 | 16.94882 | -93.40974 | 9985 ft | 262 kts | 136° |
| 2026-05-03 23:41 | 16.93573 | -93.39652 | 9991 ft | 261 kts | 137° |
| 2026-05-03 23:41 | 16.92276 | -93.38355 | 9995 ft | 262 kts | 137° |
| 2026-05-03 23:41 | 16.90967 | -93.37036 | 9996 ft | 262 kts | 136° |
| 2026-05-03 23:42 | 16.89661 | -93.35713 | 9997 ft | 261 kts | 136° |
| 2026-05-03 23:42 | 16.88347 | -93.34399 | 9998 ft | 261 kts | 137° |
| 2026-05-03 23:42 | 16.87042 | -93.33092 | 9896 ft | 259 kts | 136° |
| 2026-05-03 23:42 | 16.85755 | -93.31782 | 9637 ft | 257 kts | 136° |
| 2026-05-03 23:43 | 16.84467 | -93.30491 | 9349 ft | 256 kts | 136° |
| 2026-05-03 23:43 | 16.83186 | -93.29217 | 9070 ft | 254 kts | 136° |
| 2026-05-03 23:43 | 16.81914 | -93.27940 | 8794 ft | 252 kts | 135° |
| 2026-05-03 23:43 | 16.80659 | -93.26673 | 8529 ft | 250 kts | 135° |
| 2026-05-03 23:44 | 16.79411 | -93.25421 | 8256 ft | 248 kts | 135° |
| 2026-05-03 23:44 | 16.78177 | -93.24183 | 8013 ft | 245 kts | 136° |
| 2026-05-03 23:44 | 16.76947 | -93.22949 | 7994 ft | 245 kts | 135° |
| 2026-05-03 23:44 | 16.75720 | -93.21718 | 7996 ft | 245 kts | 136° |
| 2026-05-03 23:45 | 16.74491 | -93.20487 | 7997 ft | 245 kts | 136° |
| 2026-05-03 23:45 | 16.73259 | -93.19253 | 7997 ft | 245 kts | 135° |
| 2026-05-03 23:45 | 16.72054 | -93.18043 | 8019 ft | 236 kts | 135° |
| 2026-05-03 23:45 | 16.70876 | -93.16862 | 8007 ft | 234 kts | 135° |
| 2026-05-03 23:46 | 16.69717 | -93.15700 | 8004 ft | 234 kts | 135° |
| 2026-05-03 23:46 | 16.68535 | -93.14511 | 7988 ft | 232 kts | 136° |
| 2026-05-03 23:46 | 16.67396 | -93.13376 | 7921 ft | 222 kts | 136° |
| 2026-05-03 23:46 | 16.66311 | -93.12292 | 7808 ft | 208 kts | 135° |
| 2026-05-03 23:47 | 16.65294 | -93.11266 | 7578 ft | 201 kts | 135° |
| 2026-05-03 23:47 | 16.64295 | -93.10263 | 7260 ft | 198 kts | 136° |
| 2026-05-03 23:47 | 16.63309 | -93.09278 | 6939 ft | 195 kts | 136° |
| 2026-05-03 23:47 | 16.62325 | -93.08294 | 6624 ft | 194 kts | 136° |
| 2026-05-03 23:48 | 16.61356 | -93.07325 | 6360 ft | 192 kts | 136° |
| 2026-05-03 23:48 | 16.60400 | -93.06368 | 6078 ft | 190 kts | 136° |
| 2026-05-03 23:48 | 16.59460 | -93.05426 | 5790 ft | 189 kts | 136° |
| 2026-05-03 23:48 | 16.58514 | -93.04482 | 5500 ft | 188 kts | 136° |
| 2026-05-03 23:49 | 16.57572 | -93.03541 | 5211 ft | 187 kts | 136° |
| 2026-05-03 23:49 | 16.56645 | -93.02588 | 5001 ft | 186 kts | 134° |
| 2026-05-03 23:49 | 16.55739 | -93.01608 | 4998 ft | 187 kts | 133° |
| 2026-05-03 23:49 | 16.54842 | -93.00624 | 5009 ft | 187 kts | 134° |
| 2026-05-03 23:50 | 16.53940 | -92.99647 | 5003 ft | 187 kts | 134° |
| 2026-05-03 23:50 | 16.53336 | -92.98997 | 5002 ft | 187 kts | 134° |
| 2026-05-03 23:50 | 16.52128 | -92.97691 | 5000 ft | 187 kts | 134° |
| 2026-05-03 23:50 | 16.51224 | -92.96714 | 4999 ft | 187 kts | 134° |
| 2026-05-03 23:51 | 16.50328 | -92.95745 | 4998 ft | 187 kts | 134° |
| 2026-05-03 23:51 | 16.49412 | -92.94755 | 4998 ft | 187 kts | 134° |
| 2026-05-03 23:51 | 16.48517 | -92.93789 | 4998 ft | 187 kts | 134° |
| 2026-05-03 23:51 | 16.47613 | -92.92810 | 4998 ft | 187 kts | 134° |
| 2026-05-03 23:52 | 16.46717 | -92.91841 | 4992 ft | 181 kts | 134° |
| 2026-05-03 23:52 | 16.45767 | -92.91026 | 4920 ft | 175 kts | 153° |
| 2026-05-03 23:52 | 16.44587 | -92.90845 | 4630 ft | 174 kts | 189° |
| 2026-05-03 23:52 | 16.43537 | -92.91390 | 4332 ft | 173 kts | 223° |
| 2026-05-03 23:53 | 16.42934 | -92.92472 | 4046 ft | 173 kts | 257° |
| 2026-05-03 23:53 | 16.42992 | -92.93699 | 3993 ft | 174 kts | 288° |
| 2026-05-03 23:53 | 16.43675 | -92.94710 | 3987 ft | 171 kts | 321° |
| 2026-05-03 23:53 | 16.44654 | -92.95332 | 3919 ft | 160 kts | 332° |
| 2026-05-03 23:54 | 16.45627 | -92.95875 | 3692 ft | 156 kts | 331° |
| 2026-05-03 23:54 | 16.46544 | -92.96431 | 3298 ft | 153 kts | 329° |
| 2026-05-03 23:54 | 16.47475 | -92.97023 | 3008 ft | 158 kts | 328° |
| 2026-05-03 23:54 | 16.48447 | -92.97579 | 3016 ft | 161 kts | 336° |
| 2026-05-03 23:55 | 16.49507 | -92.98050 | 2695 ft | 168 kts | 334° |
| 2026-05-03 23:55 | 16.50490 | -92.98602 | 2455 ft | 159 kts | 332° |
| 2026-05-03 23:55 | 16.51420 | -92.99208 | 2208 ft | 159 kts | 326° |
| 2026-05-03 23:55 | 16.52329 | -92.99846 | 2054 ft | 158 kts | 325° |
| 2026-05-03 23:56 | 16.53223 | -93.00512 | 1906 ft | 159 kts | 324° |
| 2026-05-03 23:56 | 16.54115 | -93.01178 | 1739 ft | 157 kts | 324° |
| 2026-05-03 23:56 | 16.55017 | -93.01826 | 1591 ft | 157 kts | 325° |
| 2026-05-03 23:56 | 16.55891 | -93.02466 | 1505 ft | 143 kts | 325° |
| 2026-05-03 23:57 | 16.56461 | -93.02881 | 1505 ft | 55 kts | 325° |
| 2026-05-03 23:57 | 16.56598 | -93.02980 | 1505 ft | 16 kts | 324° |
| 2026-05-03 23:57 | 16.56693 | -93.03050 | 1505 ft | 18 kts | 324° |
| 2026-05-03 23:57 | 16.56798 | -93.03127 | 1505 ft | 20 kts | 324° |
| 2026-05-03 23:58 | 16.56907 | -93.03208 | 1505 ft | 18 kts | 326° |
| 2026-05-03 23:58 | 16.57013 | -93.03281 | 1505 ft | 14 kts | 329° |
| 2026-05-03 23:58 | 16.57109 | -93.03316 | 1505 ft | 14 kts | 321° |
| 2026-05-03 23:58 | 16.57072 | -93.03329 | 1505 ft | 10 kts | 147° |
| 2026-05-03 23:59 | 16.56953 | -93.03241 | 1505 ft | 31 kts | 144° |
| 2026-05-03 23:59 | 16.56772 | -93.03107 | 1505 ft | 28 kts | 145° |
| 2026-05-03 23:59 | 16.56613 | -93.02992 | 1505 ft | 29 kts | 145° |
| 2026-05-03 23:59 | 16.56482 | -93.02898 | 1505 ft | 19 kts | 145° |
| 2026-05-04 00:00 | 16.56364 | -93.02812 | 1505 ft | 22 kts | 145° |
| 2026-05-04 00:00 | 16.56248 | -93.02726 | 1505 ft | 16 kts | 144° |
| 2026-05-04 00:00 | 16.56171 | -93.02636 | 1505 ft | 18 kts | 117° |
| 2026-05-04 00:00 | 16.56113 | -93.02512 | 1505 ft | 20 kts | 116° |
| 2026-05-04 00:01 | 16.56068 | -93.02417 | 1505 ft | 7 kts | 116° |
| 2026-05-04 00:01 | 16.56043 | -93.02361 | 1505 ft | 10 kts | 115° |
| 2026-05-04 00:01 | 16.56054 | -93.02288 | 1505 ft | 12 kts | 63° |
| 2026-05-04 00:01 | 16.56096 | -93.02210 | 1505 ft | 8 kts | 60° |
| 2026-05-04 00:02 | 16.56124 | -93.02156 | 1505 ft | 8 kts | 63° |
| 2026-05-04 00:02 | 16.56129 | -93.02135 | 1505 ft | 3 kts | 105° |
| 2026-05-04 00:02 | 16.56110 | -93.02117 | 1505 ft | 1 kts | 144° |
| 2026-05-04 00:02 | 16.56098 | -93.02108 | 1505 ft | 0 kts | 144° |
| 2026-05-04 00:03 | 16.56097 | -93.02108 | 1505 ft | 0 kts | 144° |